Time;durP1;ratioP1;P1;durP2;ratioP2;P2;SDS_P1;SDS_P2;PMS_P1;PMS_P2;Temp;Humidity;BMP_temperature;BMP_pressure;BME280_temperature;BME280_humidity;BME280_pressure;Samples;Min_cycle;Max_cycle;Signal;HPM_P1;HPM_P2
2022/05/24 00:02:25;;;;;;;6.57;4.70;;;17.70;99.90;;;;;;4991500;28;20023;-76
2022/05/24 00:04:51;;;;;;;6.10;5.00;;;17.70;99.90;;;;;;4993243;28;20410;-76
2022/05/24 00:07:16;;;;;;;10.10;5.65;;;17.70;99.90;;;;;;4991780;28;20170;-76
2022/05/24 00:09:43;;;;;;;6.68;5.20;;;17.70;99.90;;;;;;4991760;28;20045;-76
2022/05/24 00:12:09;;;;;;;8.07;5.20;;;17.70;99.90;;;;;;4989590;28;20129;-77
2022/05/24 00:17:19;;;;;;;8.70;5.78;;;17.70;99.90;;;;;;4989218;28;20401;-76
2022/05/24 00:19:45;;;;;;;7.60;5.07;;;17.70;99.90;;;;;;4991389;28;20022;-77
2022/05/24 00:22:11;;;;;;;7.72;5.15;;;17.70;99.90;;;;;;4990902;28;20415;-77
2022/05/24 00:24:37;;;;;;;6.80;4.95;;;17.80;99.90;;;;;;4989673;28;20015;-77
2022/05/24 00:27:03;;;;;;;7.38;5.07;;;17.80;99.90;;;;;;4992417;28;20572;-77
2022/05/24 00:29:28;;;;;;;7.90;5.70;;;17.80;99.90;;;;;;4990088;28;20043;-78
2022/05/24 00:31:54;;;;;;;8.70;4.90;;;17.80;99.90;;;;;;4991162;28;20501;-78
2022/05/24 00:34:20;;;;;;;10.00;5.75;;;17.80;99.90;;;;;;4991540;28;20031;-78
2022/05/24 00:36:45;;;;;;;7.50;5.30;;;17.90;99.90;;;;;;4992441;28;20023;-77
2022/05/24 00:39:11;;;;;;;9.77;5.25;;;17.80;99.90;;;;;;4991350;28;20560;-77
2022/05/24 00:41:41;;;;;;;8.57;6.03;;;17.80;99.90;;;;;;4991338;28;20022;-77
2022/05/24 00:44:32;;;;;;;7.80;5.68;;;17.70;99.90;;;;;;4990879;28;20479;-78
2022/05/24 00:47:07;;;;;;;6.75;5.30;;;17.60;99.90;;;;;;4986931;28;20105;-77
2022/05/24 00:49:39;;;;;;;6.70;5.63;;;17.50;99.90;;;;;;4990971;28;20037;-77
2022/05/24 00:52:20;;;;;;;6.05;5.45;;;17.50;99.90;;;;;;4990956;28;20030;-77
2022/05/24 00:54:46;;;;;;;9.57;6.78;;;17.60;99.90;;;;;;4991118;28;20109;-78
2022/05/24 00:57:31;;;;;;;9.43;6.25;;;17.40;99.90;;;;;;4990423;28;20149;-77
2022/05/24 01:00:16;;;;;;;12.05;6.25;;;17.40;99.90;;;;;;4987655;28;20506;-78
2022/05/24 01:02:43;;;;;;;7.93;6.63;;;17.40;99.90;;;;;;4989980;28;20014;-77
2022/05/24 01:05:15;;;;;;;7.53;6.20;;;17.50;99.90;;;;;;4991605;28;20019;-78
2022/05/24 01:07:41;;;;;;;9.57;5.90;;;17.50;99.90;;;;;;4988759;28;20045;-77
2022/05/24 01:10:12;;;;;;;11.38;6.70;;;17.50;99.90;;;;;;4989905;28;20221;-77
2022/05/24 01:12:49;;;;;;;6.82;5.88;;;17.50;99.90;;;;;;4973107;28;20041;-78
2022/05/24 01:15:17;;;;;;;9.10;7.03;;;17.50;99.90;;;;;;4994798;28;20077;-78
2022/05/24 01:17:44;;;;;;;8.50;6.53;;;17.50;99.90;;;;;;4988916;28;20041;-77
2022/05/24 01:20:11;;;;;;;8.40;6.68;;;17.50;99.90;;;;;;4989191;28;20026;-77
2022/05/24 01:23:03;;;;;;;8.73;6.70;;;17.50;99.90;;;;;;4990516;28;20026;-77
2022/05/24 01:26:16;;;;;;;8.70;6.50;;;17.50;99.90;;;;;;4987578;28;20026;-77
2022/05/24 01:28:53;;;;;;;7.95;6.70;;;17.50;99.90;;;;;;4979326;28;20026;-77
2022/05/24 01:31:21;;;;;;;12.27;7.88;;;17.60;99.90;;;;;;4962615;28;20566;-77
2022/05/24 01:36:36;;;;;;;10.13;7.53;;;17.50;99.90;;;;;;4992289;28;20066;-77
2022/05/24 01:39:05;;;;;;;12.50;8.57;;;17.60;99.90;;;;;;4992205;28;20078;-77
2022/05/24 01:41:38;;;;;;;12.50;8.50;;;17.70;99.90;;;;;;5003341;28;20037;-77
2022/05/24 01:44:05;;;;;;;11.45;8.02;;;17.70;99.90;;;;;;4983053;28;20142;-78
2022/05/24 01:46:37;;;;;;;10.50;8.68;;;17.70;99.90;;;;;;4990443;28;20070;-77
2022/05/24 01:49:10;;;;;;;10.35;8.05;;;17.80;99.90;;;;;;4997989;28;20026;-77
2022/05/24 01:51:52;;;;;;;7.63;6.80;;;17.80;99.90;;;;;;4986750;28;20190;-77
2022/05/24 01:54:18;;;;;;;6.88;5.45;;;17.80;99.90;;;;;;4986297;28;20446;-77
2022/05/24 01:56:50;;;;;;;3.67;3.38;;;17.80;99.90;;;;;;4962742;28;20065;-77
2022/05/24 01:59:18;;;;;;;3.80;3.33;;;17.70;99.90;;;;;;4987649;28;20570;-77
2022/05/24 02:01:50;;;;;;;4.75;3.45;;;17.60;99.90;;;;;;4970679;28;20061;-77
2022/05/24 02:04:18;;;;;;;3.22;2.58;;;17.60;99.90;;;;;;4986746;28;20494;-77
2022/05/24 02:06:55;;;;;;;3.47;3.17;;;17.50;99.90;;;;;;4989195;28;20224;-77
2022/05/24 02:09:21;;;;;;;4.07;3.08;;;17.40;99.90;;;;;;4989117;28;20026;-77
2022/05/24 02:11:47;;;;;;;4.13;2.83;;;17.40;99.90;;;;;;4989291;28;20034;-78
2022/05/24 02:14:27;;;;;;;3.88;2.75;;;17.40;99.90;;;;;;4989843;28;20045;-78
2022/05/24 02:17:02;;;;;;;4.95;3.05;;;17.30;99.90;;;;;;4989476;28;20065;-78
2022/05/24 02:19:31;;;;;;;4.05;3.17;;;17.20;99.90;;;;;;4989972;28;20076;-78
2022/05/24 02:22:01;;;;;;;5.47;3.38;;;17.20;99.90;;;;;;4990565;28;20053;-78
2022/05/24 02:24:26;;;;;;;4.47;3.70;;;17.10;99.90;;;;;;4988754;28;20026;-76
2022/05/24 02:26:54;;;;;;;4.25;3.85;;;17.10;99.90;;;;;;4988261;28;20031;-77
2022/05/24 02:29:21;;;;;;;6.60;4.45;;;17.10;99.90;;;;;;4990172;28;20289;-77
2022/05/24 02:31:48;;;;;;;6.57;4.65;;;17.10;99.90;;;;;;4990586;28;20101;-76
2022/05/24 02:34:14;;;;;;;7.35;4.50;;;17.10;99.90;;;;;;4969650;28;20045;-77
2022/05/24 02:36:40;;;;;;;7.03;5.53;;;17.10;99.90;;;;;;4988289;28;20565;-77
2022/05/24 02:39:06;;;;;;;7.97;5.47;;;17.10;99.90;;;;;;4990677;28;20062;-78
2022/05/24 02:41:32;;;;;;;8.38;6.22;;;17.10;99.90;;;;;;4987213;28;20517;-78
2022/05/24 02:44:04;;;;;;;8.75;7.13;;;17.10;99.90;;;;;;4990413;28;20030;-78
2022/05/24 02:46:33;;;;;;;8.32;7.05;;;17.10;99.90;;;;;;4989000;28;20038;-77
2022/05/24 02:48:59;;;;;;;8.40;6.93;;;17.10;99.90;;;;;;4988883;28;20022;-76
2022/05/24 02:51:26;;;;;;;8.07;6.95;;;17.10;99.90;;;;;;4990708;28;20049;-77
2022/05/24 02:53:52;;;;;;;10.77;7.20;;;17.00;99.90;;;;;;4971998;28;20035;-78
2022/05/24 02:56:18;;;;;;;9.10;8.20;;;16.80;99.90;;;;;;4988824;28;20018;-78
2022/05/24 02:58:44;;;;;;;8.77;7.43;;;16.80;99.90;;;;;;4972603;28;20045;-78
2022/05/24 03:01:13;;;;;;;12.23;8.88;;;16.70;99.90;;;;;;4990663;28;20101;-77
2022/05/24 03:03:39;;;;;;;13.80;10.30;;;16.70;99.90;;;;;;4989117;28;20041;-77
2022/05/24 03:06:04;;;;;;;15.00;11.18;;;16.80;99.90;;;;;;4992040;28;20022;-77
2022/05/24 03:11:14;;;;;;;14.52;10.35;;;16.80;99.90;;;;;;4991105;28;20057;-77
2022/05/24 03:16:24;;;;;;;16.63;10.05;;;16.70;99.90;;;;;;4994279;28;20072;-76
2022/05/24 03:18:50;;;;;;;16.38;9.60;;;16.70;99.90;;;;;;4994264;28;20053;-77
2022/05/24 03:21:15;;;;;;;12.70;8.52;;;16.60;99.90;;;;;;4995756;28;20044;-77
2022/05/24 03:23:42;;;;;;;9.85;7.75;;;16.60;99.90;;;;;;4976330;28;20509;-77
2022/05/24 03:26:08;;;;;;;12.18;8.27;;;16.50;99.90;;;;;;4992638;28;20262;-78
2022/05/24 03:28:34;;;;;;;9.45;7.47;;;16.50;99.90;;;;;;4989872;28;20026;-77
2022/05/24 03:31:04;;;;;;;11.65;8.30;;;16.40;99.90;;;;;;4992373;28;20073;-78
2022/05/24 03:33:30;;;;;;;11.60;8.35;;;16.40;99.90;;;;;;4992247;28;20053;-77
2022/05/24 03:35:55;;;;;;;11.18;7.97;;;16.40;99.90;;;;;;4992269;28;20482;-77
2022/05/24 03:38:21;;;;;;;10.88;8.75;;;16.50;99.90;;;;;;4989678;28;20034;-77
2022/05/24 03:40:47;;;;;;;11.25;8.43;;;16.50;99.90;;;;;;4992358;28;20038;-78
2022/05/24 03:43:14;;;;;;;10.75;8.48;;;16.50;99.90;;;;;;4992311;28;20498;-77
2022/05/24 03:45:41;;;;;;;10.77;7.95;;;16.50;99.90;;;;;;4988916;28;20030;-77
2022/05/24 03:48:07;;;;;;;9.85;7.70;;;16.60;99.90;;;;;;4991359;28;20105;-77
2022/05/24 03:50:33;;;;;;;10.15;7.90;;;16.50;99.90;;;;;;4989627;28;20113;-78
2022/05/24 03:52:59;;;;;;;11.30;8.57;;;16.60;99.90;;;;;;4993658;28;20116;-76
2022/05/24 03:55:24;;;;;;;11.35;7.03;;;16.50;99.90;;;;;;4972799;28;20032;-76
2022/05/24 03:58:00;;;;;;;9.77;7.50;;;16.50;99.90;;;;;;4993290;28;20065;-76
2022/05/24 04:00:37;;;;;;;11.00;7.53;;;16.50;99.90;;;;;;4993105;28;20510;-77
2022/05/24 04:03:04;;;;;;;9.48;6.90;;;16.60;99.90;;;;;;4991208;28;20034;-77
2022/05/24 04:05:30;;;;;;;7.47;6.43;;;16.70;99.90;;;;;;4989352;28;20406;-77
2022/05/24 04:07:58;;;;;;;8.52;5.60;;;16.70;99.90;;;;;;4998735;28;20026;-77
2022/05/24 04:10:23;;;;;;;11.02;5.82;;;16.70;99.90;;;;;;4995006;28;20034;-77
2022/05/24 04:12:50;;;;;;;8.88;4.97;;;16.70;99.90;;;;;;5001369;28;20064;-78
2022/05/24 04:15:16;;;;;;;9.32;5.75;;;16.70;99.90;;;;;;4995043;28;20033;-78
2022/05/24 04:17:42;;;;;;;7.30;5.13;;;16.80;99.90;;;;;;4991103;28;20096;-79
2022/05/24 04:20:09;;;;;;;6.60;4.63;;;16.70;99.90;;;;;;4989905;28;20030;-77
2022/05/24 04:22:35;;;;;;;7.50;4.53;;;16.70;99.90;;;;;;4993779;28;20030;-77
2022/05/24 04:25:01;;;;;;;8.23;4.88;;;16.70;99.90;;;;;;4992146;28;20026;-77
2022/05/24 04:27:26;;;;;;;8.75;4.88;;;16.70;99.90;;;;;;4991211;28;20534;-77
2022/05/24 04:29:53;;;;;;;7.13;4.72;;;16.70;99.90;;;;;;4992776;28;20026;-78
2022/05/24 04:32:20;;;;;;;7.15;4.75;;;16.80;99.90;;;;;;4990793;28;20046;-77
2022/05/24 04:34:46;;;;;;;6.50;4.50;;;16.70;99.90;;;;;;4986702;28;20501;-78
2022/05/24 04:37:12;;;;;;;7.75;5.10;;;16.70;99.90;;;;;;4989897;28;20037;-77
2022/05/24 04:39:38;;;;;;;9.45;5.53;;;16.70;99.90;;;;;;4990547;28;20028;-77
2022/05/24 04:42:21;;;;;;;7.13;4.40;;;16.70;99.90;;;;;;4991508;28;20022;-78
2022/05/24 04:44:48;;;;;;;4.82;4.03;;;16.70;99.90;;;;;;4987037;28;20042;-78
2022/05/24 04:47:15;;;;;;;7.15;4.75;;;16.70;99.90;;;;;;4985292;28;20034;-79
2022/05/24 04:49:47;;;;;;;8.35;4.75;;;16.60;99.90;;;;;;4990373;28;20113;-78
2022/05/24 04:52:14;;;;;;;7.13;4.18;;;16.60;99.90;;;;;;4988949;28;20498;-77
2022/05/24 04:54:41;;;;;;;8.18;4.30;;;16.60;99.90;;;;;;4988424;28;20085;-77
2022/05/24 04:57:08;;;;;;;5.15;3.65;;;16.60;99.90;;;;;;4972658;28;20062;-77
2022/05/24 04:59:34;;;;;;;5.20;3.33;;;16.50;99.90;;;;;;4988693;28;20022;-77
2022/05/24 05:02:01;;;;;;;6.78;3.45;;;16.60;99.90;;;;;;4969767;28;20114;-77
2022/05/24 05:04:27;;;;;;;5.32;3.50;;;16.50;99.90;;;;;;4984069;28;20031;-77
2022/05/24 05:06:54;;;;;;;4.38;3.00;;;16.50;99.90;;;;;;4988178;28;20030;-77
2022/05/24 05:09:20;;;;;;;4.90;3.30;;;16.60;99.90;;;;;;4984130;28;20034;-77
2022/05/24 05:11:46;;;;;;;5.80;3.53;;;16.60;99.90;;;;;;4982921;28;20078;-77
2022/05/24 05:14:12;;;;;;;7.00;3.10;;;16.60;99.90;;;;;;4988982;28;20031;-77
2022/05/24 05:16:39;;;;;;;6.97;3.67;;;16.50;99.90;;;;;;4990188;28;20054;-77
2022/05/24 05:19:10;;;;;;;4.57;2.70;;;16.50;99.90;;;;;;4984161;28;20031;-77
2022/05/24 05:21:38;;;;;;;7.30;3.42;;;16.60;99.90;;;;;;4981713;28;20033;-77
2022/05/24 05:24:05;;;;;;;4.97;3.38;;;16.50;99.90;;;;;;4985978;28;20460;-77
2022/05/24 05:26:31;;;;;;;5.63;3.08;;;16.60;99.90;;;;;;4993536;28;20072;-77
2022/05/24 05:28:57;;;;;;;4.10;2.70;;;16.60;99.90;;;;;;4987386;28;20491;-77
2022/05/24 05:31:25;;;;;;;6.90;2.92;;;16.60;99.90;;;;;;4987710;28;20030;-77
2022/05/24 05:33:51;;;;;;;4.30;3.00;;;16.50;99.90;;;;;;4987595;28;20019;-77
2022/05/24 05:36:21;;;;;;;6.45;3.60;;;16.60;99.90;;;;;;4990443;28;20564;-77
2022/05/24 05:38:47;;;;;;;6.13;3.92;;;16.70;99.90;;;;;;4987837;28;20395;-78
2022/05/24 05:41:18;;;;;;;6.03;3.47;;;16.70;99.90;;;;;;4986540;28;20104;-77
2022/05/24 05:43:44;;;;;;;;;;;16.80;99.90;;;;;;4988754;28;20033;-78
2022/05/24 05:46:11;;;;;;;6.40;3.90;;;16.90;99.90;;;;;;4973207;28;19905;-77
2022/05/24 05:48:38;;;;;;;6.70;4.20;;;17.00;99.90;;;;;;4989799;28;20030;-77
2022/05/24 05:51:05;;;;;;;7.35;4.00;;;17.10;99.90;;;;;;4986299;28;20058;-78
2022/05/24 05:53:30;;;;;;;6.00;3.40;;;17.20;99.90;;;;;;4990548;28;20390;-78
2022/05/24 05:55:56;;;;;;;7.10;4.20;;;17.30;99.90;;;;;;4988726;28;20025;-77
2022/05/24 05:58:22;;;;;;;6.55;3.60;;;17.30;99.90;;;;;;4991874;28;20037;-78
2022/05/24 06:00:49;;;;;;;6.68;3.78;;;17.30;99.90;;;;;;4989365;28;20410;-78
2022/05/24 06:03:16;;;;;;;6.13;3.88;;;17.40;99.90;;;;;;4989634;28;20088;-78
2022/05/24 06:05:50;;;;;;;5.13;3.30;;;17.40;99.90;;;;;;4992228;28;20056;-77
2022/05/24 06:08:16;;;;;;;6.35;4.00;;;17.40;99.90;;;;;;4989949;28;20073;-77
2022/05/24 06:10:42;;;;;;;5.97;3.35;;;17.50;99.90;;;;;;4988015;28;20029;-78
2022/05/24 06:13:08;;;;;;;5.03;3.63;;;17.40;99.90;;;;;;4990466;28;20026;-78
2022/05/24 06:15:34;;;;;;;5.05;3.22;;;17.50;99.90;;;;;;4991723;28;20407;-77
2022/05/24 06:18:00;;;;;;;5.18;3.35;;;17.50;99.90;;;;;;4988332;28;20080;-77
2022/05/24 06:20:29;;;;;;;7.72;3.90;;;17.60;99.90;;;;;;4989799;28;20030;-77
2022/05/24 06:22:57;;;;;;;6.10;3.60;;;17.70;99.90;;;;;;4991551;28;20548;-77
2022/05/24 06:25:26;;;;;;;5.55;3.70;;;17.80;99.90;;;;;;4990224;28;20463;-77
2022/05/24 06:27:53;;;;;;;6.90;4.20;;;17.90;99.90;;;;;;4989098;28;20037;-77
2022/05/24 06:30:22;;;;;;;6.03;4.22;;;18.00;99.90;;;;;;4991524;28;20064;-78
2022/05/24 06:32:49;;;;;;;7.78;4.07;;;17.80;99.90;;;;;;4987670;28;20081;-76
2022/05/24 06:35:15;;;;;;;5.78;3.85;;;17.90;99.90;;;;;;4996230;28;20031;-76
2022/05/24 06:37:41;;;;;;;8.20;4.10;;;17.90;99.90;;;;;;5008225;28;20051;-77
2022/05/24 06:40:09;;;;;;;7.05;4.22;;;17.80;99.90;;;;;;4993034;28;20038;-77
2022/05/24 06:42:34;;;;;;;8.48;5.78;;;17.70;99.90;;;;;;4990744;28;20073;-77
2022/05/24 06:45:01;;;;;;;7.55;4.57;;;17.70;99.90;;;;;;4984085;28;20157;-76
2022/05/24 06:47:27;;;;;;;6.35;4.30;;;17.70;99.90;;;;;;4984834;28;20053;-76
2022/05/24 06:49:54;;;;;;;6.22;5.05;;;17.70;99.90;;;;;;4977407;28;20023;-77
2022/05/24 06:52:20;;;;;;;6.47;4.60;;;17.70;99.90;;;;;;4987327;28;20026;-77
2022/05/24 06:54:46;;;;;;;7.95;4.85;;;17.70;99.90;;;;;;4988558;28;20032;-79
2022/05/24 06:57:12;;;;;;;7.57;5.28;;;17.80;99.90;;;;;;4971765;28;20109;-76
2022/05/24 07:02:27;;;;;;;8.07;5.45;;;17.80;99.90;;;;;;4989199;28;20035;-77
2022/05/24 07:05:02;;;;;;;8.65;5.45;;;17.60;99.90;;;;;;4990910;28;20042;-76
2022/05/24 07:07:30;;;;;;;10.80;5.40;;;17.80;99.90;;;;;;4986477;28;20122;-77
2022/05/24 07:09:56;;;;;;;7.70;6.32;;;17.80;99.90;;;;;;4987100;28;20038;-77
2022/05/24 07:12:22;;;;;;;6.35;5.30;;;17.80;99.90;;;;;;4991981;28;20066;-78
2022/05/24 07:14:49;;;;;;;8.00;6.28;;;17.80;99.90;;;;;;4991267;28;20034;-78
2022/05/24 07:17:17;;;;;;;9.07;6.80;;;17.70;99.90;;;;;;4991199;28;20502;-77
2022/05/24 07:19:44;;;;;;;8.82;6.43;;;17.70;99.90;;;;;;4988939;28;20069;-76
2022/05/24 07:22:10;;;;;;;8.65;6.53;;;17.70;99.90;;;;;;4987221;28;20033;-76
2022/05/24 07:24:37;;;;;;;9.95;5.85;;;17.70;99.90;;;;;;4986568;28;20053;-77
2022/05/24 07:27:04;;;;;;;10.68;7.35;;;17.90;99.90;;;;;;4988896;28;20030;-77
2022/05/24 07:29:34;;;;;;;8.68;6.35;;;17.90;99.90;;;;;;4988977;28;20015;-77
2022/05/24 07:32:00;;;;;;;7.03;5.43;;;18.10;99.90;;;;;;4989385;28;20026;-77
2022/05/24 07:34:26;;;;;;;8.18;6.47;;;18.20;99.90;;;;;;4990217;28;20037;-77
2022/05/24 07:36:52;;;;;;;9.75;8.27;;;18.30;99.90;;;;;;4972926;28;20038;-77
2022/05/24 07:39:19;;;;;;;9.13;7.20;;;18.40;99.90;;;;;;4989149;28;20032;-77
2022/05/24 07:47:14;;;;;;;8.98;6.82;;;18.60;99.90;;;;;;4988010;28;20048;-78
2022/05/24 07:49:39;;;;;;;10.00;8.30;;;18.70;99.90;;;;;;4990910;28;20034;-76
2022/05/24 07:52:05;;;;;;;12.38;8.27;;;18.70;99.90;;;;;;4989669;28;20390;-77
2022/05/24 07:54:33;;;;;;;15.23;9.25;;;18.70;99.90;;;;;;4992859;28;20068;-77
2022/05/24 07:56:59;;;;;;;15.07;10.77;;;18.80;99.90;;;;;;4990344;28;20443;-78
2022/05/24 07:59:25;;;;;;;14.82;11.02;;;18.90;99.90;;;;;;4989250;28;20399;-77
2022/05/24 08:01:51;;;;;;;10.63;8.18;;;19.00;99.90;;;;;;4992263;28;20037;-76
2022/05/24 08:04:16;;;;;;;16.38;8.98;;;19.00;99.90;;;;;;4991554;28;20033;-78
2022/05/24 08:06:42;;;;;;;9.63;7.63;;;19.00;99.90;;;;;;4992801;28;20034;-78
2022/05/24 08:09:08;;;;;;;9.52;7.45;;;19.10;99.90;;;;;;4991466;28;20029;-78
2022/05/24 08:11:34;;;;;;;14.77;7.28;;;19.20;99.90;;;;;;4976043;28;20398;-78
2022/05/24 08:14:02;;;;;;;11.88;8.05;;;19.30;99.90;;;;;;4992675;28;20049;-78
2022/05/24 08:16:29;;;;;;;10.95;8.88;;;19.50;99.90;;;;;;4973177;28;20030;-78
2022/05/24 08:18:55;;;;;;;9.52;7.55;;;19.40;99.90;;;;;;4989809;28;20025;-78
2022/05/24 08:21:21;;;;;;;11.32;8.23;;;19.60;99.90;;;;;;4969792;28;20122;-78
2022/05/24 08:23:46;;;;;;;14.57;9.07;;;19.70;99.90;;;;;;4989525;28;20042;-78
2022/05/24 08:26:13;;;;;;;12.45;8.27;;;19.80;99.90;;;;;;4971257;28;20026;-78
2022/05/24 08:28:41;;;;;;;13.38;8.15;;;19.80;99.90;;;;;;4991512;28;20046;-78
2022/05/24 08:31:08;;;;;;;10.38;8.90;;;19.80;99.90;;;;;;4992048;28;20073;-78
2022/05/24 08:33:34;;;;;;;12.02;9.05;;;19.50;99.90;;;;;;4991490;28;20037;-78
2022/05/24 08:36:00;;;;;;;10.40;7.78;;;19.40;99.90;;;;;;4993430;28;20113;-78
2022/05/24 08:38:28;;;;;;;12.25;8.40;;;19.30;99.90;;;;;;4995503;28;20490;-77
2022/05/24 08:40:59;;;;;;;10.40;8.55;;;19.20;99.90;;;;;;4993060;28;20038;-79
2022/05/24 08:43:35;;;;;;;10.35;7.20;;;19.20;99.90;;;;;;4990073;28;20033;-78
2022/05/24 08:49:05;;;;;;;12.70;7.57;;;19.40;99.90;;;;;;4990375;28;20101;-77
2022/05/24 08:51:38;;;;;;;11.07;6.80;;;19.30;99.90;;;;;;4992158;28;20037;-78
2022/05/24 08:54:14;;;;;;;9.77;7.22;;;19.20;99.90;;;;;;4989960;28;20084;-77
2022/05/24 08:57:08;;;;;;;10.15;7.47;;;19.00;99.90;;;;;;4988734;28;20019;-77
2022/05/24 08:59:39;;;;;;;11.20;8.23;;;18.80;99.90;;;;;;4975018;28;20035;-77
2022/05/24 09:02:07;;;;;;;10.10;8.02;;;18.80;99.90;;;;;;4978334;28;20055;-77
2022/05/24 09:04:33;;;;;;;9.60;7.85;;;18.70;99.90;;;;;;5007507;28;20061;-78
2022/05/24 09:07:27;;;;;;;11.05;7.70;;;18.90;99.90;;;;;;4998557;28;20449;-77
2022/05/24 09:10:09;;;;;;;12.25;8.32;;;19.10;99.90;;;;;;4991635;28;20022;-77
2022/05/24 09:12:48;;;;;;;14.07;10.00;;;19.40;99.90;;;;;;4990895;28;20098;-78
2022/05/24 09:15:21;;;;;;;11.43;7.32;;;19.30;99.90;;;;;;4987540;28;20065;-78
2022/05/24 09:18:20;;;;;;;9.55;6.68;;;19.50;99.90;;;;;;4991665;28;20035;-76
2022/05/24 09:20:46;;;;;;;7.90;6.22;;;19.80;99.90;;;;;;4988910;28;20041;-77
2022/05/24 09:23:16;;;;;;;8.85;6.10;;;20.00;99.90;;;;;;4990494;28;20026;-77
2022/05/24 09:26:13;;;;;;;9.60;6.32;;;20.30;99.90;;;;;;4991140;28;20041;-78
2022/05/24 09:28:52;;;;;;;10.10;6.68;;;20.30;99.90;;;;;;4969875;28;20431;-78
2022/05/24 09:31:39;;;;;;;8.60;6.35;;;20.20;99.90;;;;;;4990130;28;20030;-78
2022/05/24 09:34:16;;;;;;;13.60;8.38;;;20.20;99.90;;;;;;4989974;28;20128;-78
2022/05/24 09:36:56;;;;;;;12.15;7.18;;;20.00;99.90;;;;;;4990336;28;20048;-78
2022/05/24 09:39:35;;;;;;;9.63;7.63;;;20.10;99.90;;;;;;4986437;28;20022;-78
2022/05/24 09:42:09;;;;;;;14.35;8.25;;;20.10;99.90;;;;;;4987545;28;20093;-77
2022/05/24 09:44:48;;;;;;;11.07;9.00;;;20.00;99.90;;;;;;4991164;28;20026;-78
2022/05/24 09:47:29;;;;;;;11.88;8.23;;;19.80;99.90;;;;;;4986890;28;20030;-77
2022/05/24 09:50:14;;;;;;;11.63;7.50;;;19.80;99.90;;;;;;4982744;28;20102;-78
2022/05/24 09:52:40;;;;;;;11.07;8.00;;;20.00;99.90;;;;;;4987750;28;20098;-78
2022/05/24 09:55:06;;;;;;;11.98;8.50;;;20.00;99.90;;;;;;4991480;28;20033;-78
2022/05/24 09:57:33;;;;;;;13.00;8.57;;;20.00;99.90;;;;;;4990191;28;20030;-78
2022/05/24 10:00:20;;;;;;;13.50;8.68;;;20.00;99.90;;;;;;4989301;28;20069;-78
2022/05/24 10:03:03;;;;;;;9.23;6.97;;;19.90;99.90;;;;;;4990871;28;20034;-77
2022/05/24 10:05:30;;;;;;;11.30;6.95;;;19.70;99.90;;;;;;4990522;28;20026;-78
2022/05/24 10:08:04;;;;;;;9.23;6.47;;;19.50;99.90;;;;;;4988491;28;20035;-78
2022/05/24 10:10:40;;;;;;;9.45;6.15;;;19.40;99.90;;;;;;4989429;28;20406;-77
2022/05/24 10:13:27;;;;;;;14.05;7.13;;;19.30;99.90;;;;;;4984090;28;20133;-77
2022/05/24 10:16:14;;;;;;;9.77;6.95;;;19.10;99.90;;;;;;4990039;28;20030;-78
2022/05/24 10:18:53;;;;;;;8.65;5.63;;;18.90;99.90;;;;;;4973344;28;20033;-77
2022/05/24 10:21:27;;;;;;;10.10;6.30;;;18.80;99.90;;;;;;4986554;28;20027;-78
2022/05/24 10:23:52;;;;;;;12.73;7.70;;;18.80;99.90;;;;;;4986488;28;20065;-77
2022/05/24 10:26:39;;;;;;;11.38;6.80;;;18.80;99.90;;;;;;4990753;28;20062;-78
2022/05/24 10:29:37;;;;;;;12.90;8.10;;;18.80;99.90;;;;;;4990121;28;20031;-78
2022/05/24 10:38:45;;;;;;;13.77;9.23;;;19.00;99.90;;;;;;4963306;28;20031;-78
2022/05/24 10:41:16;;;;;;;12.65;9.23;;;19.00;99.90;;;;;;4980275;28;20241;-78
2022/05/24 10:43:51;;;;;;;13.43;9.70;;;19.00;99.90;;;;;;4975587;28;20026;-77
2022/05/24 10:46:23;;;;;;;542.70;382.08;;;18.90;99.90;;;;;;4963968;28;20134;-77
2022/05/24 10:49:15;;;;;;;167.48;116.50;;;18.80;99.90;;;;;;4967063;28;22100;-78
2022/05/24 10:51:53;;;;;;;38.88;29.88;;;18.80;99.90;;;;;;4977717;28;20080;-77
2022/05/24 10:54:42;;;;;;;20.55;14.38;;;18.60;99.90;;;;;;4998425;28;20023;-77
2022/05/24 10:57:23;;;;;;;14.82;10.70;;;18.50;99.90;;;;;;4978319;28;20522;-77
2022/05/24 10:59:57;;;;;;;18.08;10.85;;;18.40;99.90;;;;;;4971450;28;20121;-78
2022/05/24 11:02:47;;;;;;;11.95;9.77;;;18.40;99.90;;;;;;4964918;28;20042;-78
2022/05/24 11:05:23;;;;;;;11.63;8.10;;;18.20;99.90;;;;;;4969110;28;20463;-77
2022/05/24 11:07:58;;;;;;;10.35;6.95;;;18.30;99.90;;;;;;4966236;28;20031;-78
2022/05/24 11:10:30;;;;;;;12.77;7.68;;;18.30;99.90;;;;;;4975225;28;20070;-77
2022/05/24 11:13:01;;;;;;;9.90;6.00;;;18.10;99.90;;;;;;4972098;28;20503;-77
2022/05/24 11:15:48;;;;;;;9.27;6.25;;;18.00;99.90;;;;;;4973633;28;20061;-77
2022/05/24 11:18:20;;;;;;;9.55;6.13;;;18.00;99.90;;;;;;4976269;28;20565;-77
2022/05/24 11:21:05;;;;;;;12.63;6.53;;;17.90;99.90;;;;;;4982165;28;20165;-78
2022/05/24 11:24:01;;;;;;;10.23;6.05;;;17.90;99.90;;;;;;4983606;28;20027;-77
2022/05/24 11:26:31;;;;;;;8.82;6.28;;;17.90;99.90;;;;;;4993826;28;20046;-78
2022/05/24 11:29:10;;;;;;;9.40;6.43;;;17.90;99.90;;;;;;4990983;28;20027;-77
2022/05/24 11:31:49;;;;;;;9.57;7.05;;;17.70;99.90;;;;;;4997270;28;20027;-77
2022/05/24 11:34:30;;;;;;;8.75;6.03;;;17.60;99.90;;;;;;5008479;28;20026;-78
2022/05/24 11:37:11;;;;;;;7.78;5.97;;;17.60;99.90;;;;;;5000876;28;20045;-78
2022/05/24 11:39:39;;;;;;;8.73;5.53;;;17.50;99.90;;;;;;4996685;28;20026;-78
2022/05/24 11:42:34;;;;;;;9.18;6.47;;;17.50;99.90;;;;;;4993205;28;20429;-76
2022/05/24 11:45:20;;;;;;;11.25;6.85;;;17.40;99.90;;;;;;4992972;28;20092;-77
2022/05/24 11:47:47;;;;;;;11.70;6.10;;;17.50;99.90;;;;;;5016833;28;20102;-77
2022/05/24 11:50:31;;;;;;;10.85;6.60;;;17.70;99.90;;;;;;5018358;28;20099;-77
2022/05/24 11:53:08;;;;;;;10.10;5.75;;;18.00;99.90;;;;;;5017578;28;20038;-78
2022/05/24 11:55:45;;;;;;;10.93;6.93;;;18.20;99.90;;;;;;5013591;28;20086;-77
2022/05/24 11:58:19;;;;;;;10.57;7.10;;;18.40;99.90;;;;;;5013659;28;20019;-78
2022/05/24 12:01:00;;;;;;;16.58;8.05;;;18.60;99.90;;;;;;5016373;28;20015;-78
2022/05/24 12:09:25;;;;;;;7.97;5.65;;;19.10;99.90;;;;;;4996454;28;20041;-77
2022/05/24 12:12:09;;;;;;;;;;;19.70;99.90;;;;;;4993871;28;20026;-78
2022/05/24 12:14:38;;;;;;;8.35;6.13;;;19.90;99.90;;;;;;4991246;28;19918;-78
2022/05/24 12:17:12;;;;;;;10.02;5.90;;;20.10;99.90;;;;;;4974297;28;20038;-78
2022/05/24 12:19:38;;;;;;;17.67;8.00;;;20.50;99.90;;;;;;4990649;28;20055;-78
2022/05/24 12:22:09;;;;;;;11.55;6.65;;;20.10;99.90;;;;;;4993421;28;20062;-78
2022/05/24 12:24:47;;;;;;;11.13;6.13;;;20.20;99.90;;;;;;4991864;28;20084;-78
2022/05/24 12:27:31;;;;;;;9.57;6.22;;;20.20;99.90;;;;;;4991998;28;20038;-78
2022/05/24 12:29:59;;;;;;;12.23;5.88;;;20.60;99.90;;;;;;4991610;28;20400;-78
2022/05/24 12:32:30;;;;;;;11.63;5.07;;;21.10;99.90;;;;;;4991860;28;20577;-78
2022/05/24 12:35:05;;;;;;;7.20;5.35;;;21.00;99.90;;;;;;4989856;28;20026;-78
2022/05/24 12:37:35;;;;;;;7.03;4.90;;;20.50;99.90;;;;;;4990255;28;20045;-78
2022/05/24 12:40:22;;;;;;;6.78;4.78;;;20.20;99.90;;;;;;4993079;28;20201;-77
2022/05/24 12:42:53;;;;;;;7.03;4.30;;;19.90;99.90;;;;;;4990928;28;20151;-78
2022/05/24 12:45:39;;;;;;;6.32;4.38;;;20.20;99.90;;;;;;4992144;28;20196;-78
2022/05/24 12:48:31;;;;;;;8.68;3.50;;;20.90;99.90;;;;;;4992821;28;20077;-78
2022/05/24 12:51:07;;;;;;;7.10;3.70;;;22.10;99.90;;;;;;4989554;28;20062;-78
2022/05/24 12:53:34;;;;;;;6.10;3.38;;;24.20;97.80;;;;;;4993713;28;20034;-78
2022/05/24 12:56:08;;;;;;;6.35;2.60;;;24.90;91.70;;;;;;4993813;28;20023;-78
2022/05/24 12:58:45;;;;;;;4.63;2.80;;;26.50;89.50;;;;;;4991177;28;20041;-78
2022/05/24 13:01:16;;;;;;;5.43;2.95;;;27.40;80.70;;;;;;4995780;28;20034;-78
2022/05/24 13:04:00;;;;;;;6.07;3.10;;;27.10;74.90;;;;;;4992900;28;20126;-78
2022/05/24 13:06:33;;;;;;;5.70;2.92;;;27.00;73.50;;;;;;4973094;28;20066;-78
2022/05/24 13:09:25;;;;;;;5.00;2.75;;;27.10;70.60;;;;;;4994120;28;20051;-77
2022/05/24 13:12:01;;;;;;;5.10;2.97;;;26.20;69.70;;;;;;4991141;28;20026;-77
2022/05/24 13:14:33;;;;;;;4.57;2.88;;;25.00;73.60;;;;;;4989911;28;20038;-77
2022/05/24 13:16:59;;;;;;;5.85;3.08;;;24.00;74.70;;;;;;4991016;28;20077;-77
2022/05/24 13:19:25;;;;;;;4.47;3.40;;;23.30;77.10;;;;;;4973825;28;20026;-77
2022/05/24 13:21:54;;;;;;;5.22;2.70;;;22.70;79.90;;;;;;4988710;28;20438;-77
2022/05/24 13:24:20;;;;;;;5.32;3.50;;;22.40;83.00;;;;;;4990259;28;20137;-78
2022/05/24 13:27:00;;;;;;;3.75;2.47;;;22.30;84.70;;;;;;4975116;28;20110;-77
2022/05/24 13:29:29;;;;;;;7.82;2.45;;;24.10;84.10;;;;;;4991564;28;20486;-77
2022/05/24 13:34:59;;;;;;;10.23;4.50;;;25.30;73.30;;;;;;4991029;28;20030;-78
2022/05/24 13:37:46;;;;;;;3.80;2.88;;;23.70;70.70;;;;;;4988389;28;20037;-78
2022/05/24 13:40:12;;;;;;;5.32;3.15;;;22.70;77.30;;;;;;4989129;28;20061;-77
2022/05/24 13:42:55;;;;;;;5.97;3.03;;;22.50;80.10;;;;;;4991139;28;20044;-78